createdAt,value
2023-04-11T00:00:34.113Z,99.90
2023-04-11T00:05:36.814Z,99.90
2023-04-11T00:10:38.482Z,99.90
2023-04-11T00:15:40.151Z,99.90
2023-04-11T00:20:41.834Z,99.90
2023-04-11T00:25:43.436Z,99.90
2023-04-11T00:30:45.119Z,99.90
2023-04-11T00:35:46.778Z,99.90
2023-04-11T00:40:48.521Z,99.90
2023-04-11T00:45:50.217Z,99.90
2023-04-11T00:50:51.913Z,99.90
2023-04-11T00:55:53.761Z,99.90
2023-04-11T01:00:55.557Z,99.90
2023-04-11T01:05:57.438Z,99.90
2023-04-11T01:10:59.205Z,99.90
2023-04-11T01:16:00.961Z,99.90
2023-04-11T01:21:02.631Z,99.90
2023-04-11T01:26:04.274Z,99.90
2023-04-11T01:31:06.670Z,99.90
2023-04-11T01:36:08.627Z,99.90
2023-04-11T01:41:10.677Z,99.90
2023-04-11T01:46:12.977Z,99.90
2023-04-11T01:51:15.806Z,99.90
2023-04-11T01:56:17.489Z,99.90
2023-04-11T02:01:20.063Z,99.90
2023-04-11T02:06:21.766Z,99.90
2023-04-11T02:11:24.333Z,99.90
2023-04-11T02:16:29.722Z,99.90
2023-04-11T02:21:32.969Z,99.90
2023-04-11T02:26:34.670Z,99.90
2023-04-11T02:31:36.458Z,99.90
2023-04-11T02:36:38.169Z,99.90
2023-04-11T02:41:39.951Z,99.90
2023-04-11T02:46:41.615Z,99.90
2023-04-11T02:51:43.277Z,99.90
2023-04-11T02:56:44.888Z,99.90
2023-04-11T03:01:46.609Z,99.90
2023-04-11T03:06:48.367Z,99.90
2023-04-11T03:11:50.116Z,99.90
2023-04-11T03:16:51.773Z,99.90
2023-04-11T03:21:53.400Z,99.90
2023-04-11T03:26:55.926Z,99.90
2023-04-11T03:31:57.608Z,99.90
2023-04-11T03:36:59.269Z,99.90
2023-04-11T03:42:02.192Z,99.90
2023-04-11T03:47:03.848Z,99.90
2023-04-11T03:52:06.744Z,99.90
2023-04-11T03:57:09.146Z,99.90
2023-04-11T04:02:10.950Z,99.90
2023-04-11T04:07:13.160Z,99.90
2023-04-11T04:12:14.884Z,99.90
2023-04-11T04:17:16.542Z,99.90
2023-04-11T04:22:18.160Z,99.90
2023-04-11T04:27:19.840Z,99.90
2023-04-11T04:32:22.869Z,99.90
2023-04-11T04:37:25.326Z,99.90
2023-04-11T04:42:27.696Z,99.90
2023-04-11T04:47:31.438Z,99.90
2023-04-11T04:52:33.125Z,99.90
2023-04-11T04:57:34.796Z,99.90
2023-04-11T05:02:38.010Z,99.90
2023-04-11T05:07:39.805Z,99.90
2023-04-11T05:12:41.640Z,99.90
2023-04-11T05:17:43.227Z,99.90
2023-04-11T05:22:44.912Z,99.90
2023-04-11T05:27:46.612Z,99.90
2023-04-11T05:32:48.539Z,99.90
2023-04-11T05:37:50.409Z,99.90
2023-04-11T05:42:52.013Z,99.90
2023-04-11T05:47:53.645Z,99.90
2023-04-11T05:52:55.939Z,99.90
2023-04-11T05:57:58.603Z,99.90
2023-04-11T06:03:01.808Z,99.90
2023-04-11T06:08:04.276Z,99.90
2023-04-11T06:13:06.151Z,99.90
2023-04-11T06:18:07.919Z,99.90
2023-04-11T06:23:09.622Z,99.90
2023-04-11T06:28:11.289Z,99.90
2023-04-11T06:33:12.983Z,99.90
2023-04-11T06:38:14.617Z,99.90
2023-04-11T06:43:16.252Z,99.90
2023-04-11T06:48:18.073Z,99.90
2023-04-11T06:53:19.682Z,99.90
2023-04-11T06:58:21.329Z,99.90
2023-04-11T07:03:25.151Z,99.90
2023-04-11T07:08:27.026Z,99.90
2023-04-11T07:13:28.683Z,99.90
2023-04-11T07:18:31.054Z,99.90
2023-04-11T07:23:32.698Z,99.90
2023-04-11T07:28:35.054Z,99.90
2023-04-11T07:33:37.674Z,99.90
2023-04-11T07:38:39.271Z,99.90
2023-04-11T07:43:41.159Z,99.90
2023-04-11T07:48:43.171Z,99.90
2023-04-11T07:53:44.978Z,99.90
2023-04-11T07:58:46.673Z,99.90
2023-04-11T08:03:49.416Z,99.90
2023-04-11T08:08:51.330Z,99.90
2023-04-11T08:13:53.135Z,99.90
2023-04-11T08:18:54.759Z,99.90
2023-04-11T08:23:56.526Z,99.90
2023-04-11T08:28:58.338Z,99.90
2023-04-11T08:34:01.534Z,99.90
2023-04-11T08:39:04.426Z,99.90
2023-04-11T08:44:09.893Z,99.90
2023-04-11T08:49:11.604Z,99.90
2023-04-11T08:54:13.329Z,99.90
2023-04-11T08:59:14.987Z,99.90
2023-04-11T09:04:16.944Z,99.90
2023-04-11T09:09:28.087Z,99.90
2023-04-11T09:14:30.191Z,99.90
2023-04-11T09:19:32.759Z,99.90
2023-04-11T09:24:35.819Z,99.90
2023-04-11T09:29:39.003Z,99.90
2023-04-11T09:34:42.604Z,99.90
2023-04-11T09:39:44.634Z,99.90
2023-04-11T09:44:46.308Z,99.90
2023-04-11T09:49:48.500Z,99.90
2023-04-11T09:54:50.965Z,99.90
2023-04-11T09:59:52.729Z,99.90
2023-04-11T10:05:00.216Z,99.90
2023-04-11T10:10:02.218Z,99.90
2023-04-11T10:15:08.287Z,99.90
2023-04-11T10:20:43.427Z,99.90
2023-04-11T10:25:59.088Z,99.90
2023-04-11T10:31:02.190Z,99.90
2023-04-11T10:36:12.748Z,99.90
2023-04-11T10:41:17.413Z,97.10
2023-04-11T10:46:23.315Z,95.10
2023-04-11T10:51:28.506Z,95.40
2023-04-11T10:56:50.577Z,92.90
2023-04-11T11:01:56.037Z,94.30
2023-04-11T11:07:01.696Z,91.00
2023-04-11T11:12:13.818Z,88.90
2023-04-11T11:17:16.333Z,88.30
2023-04-11T11:22:18.654Z,87.80
2023-04-11T11:27:20.214Z,90.00
2023-04-11T11:32:24.761Z,87.20
2023-04-11T11:37:27.001Z,85.40
2023-04-11T11:42:28.719Z,85.50
2023-04-11T11:47:41.466Z,85.40
2023-04-11T11:52:44.444Z,85.60
2023-04-11T12:14:37.978Z,77.30
2023-04-11T12:19:41.987Z,78.90
2023-04-11T12:24:43.601Z,77.30
2023-04-11T12:29:46.683Z,75.60
2023-04-11T12:34:48.290Z,76.90
2023-04-11T12:39:51.537Z,75.40
2023-04-11T12:44:53.320Z,72.70
2023-04-11T12:49:54.890Z,76.10
2023-04-11T12:55:07.389Z,76.00
2023-04-11T13:00:13.443Z,74.00
2023-04-11T13:05:16.591Z,74.50
2023-04-11T13:10:18.677Z,74.50
2023-04-11T13:15:21.515Z,69.70
2023-04-11T13:20:24.121Z,71.00
2023-04-11T13:25:25.841Z,70.50
2023-04-11T13:30:27.453Z,73.10
2023-04-11T13:35:29.293Z,73.60
2023-04-11T13:40:31.107Z,72.20
2023-04-11T13:45:32.881Z,74.00
2023-04-11T13:50:34.589Z,74.60
2023-04-11T13:55:36.284Z,74.10
2023-04-11T14:00:37.925Z,74.00
2023-04-11T14:05:39.702Z,75.00
2023-04-11T14:10:41.319Z,74.60
2023-04-11T14:15:43.208Z,75.90
2023-04-11T14:20:44.927Z,75.70
2023-04-11T14:25:46.655Z,74.10
2023-04-11T14:30:48.616Z,75.90
2023-04-11T14:35:50.940Z,77.60
2023-04-11T14:40:52.725Z,76.80
2023-04-11T14:45:57.841Z,77.30
2023-04-11T14:51:02.289Z,77.30
2023-04-11T14:56:04.590Z,79.20
2023-04-11T15:01:06.437Z,78.40
2023-04-11T15:06:09.247Z,80.20
2023-04-11T15:11:10.891Z,77.30
2023-04-11T15:16:13.606Z,76.80
2023-04-11T15:21:17.429Z,77.20
2023-04-11T15:26:22.041Z,79.70
2023-04-11T15:31:25.558Z,80.50
2023-04-11T15:36:28.668Z,81.10
2023-04-11T15:41:31.874Z,81.40
2023-04-11T15:46:33.614Z,82.60
2023-04-11T15:51:35.381Z,82.10
2023-04-11T15:56:37.296Z,82.10
2023-04-11T16:01:40.431Z,79.90
2023-04-11T16:06:42.419Z,82.40
2023-04-11T16:11:44.095Z,82.00
2023-04-11T16:16:46.662Z,82.10
2023-04-11T16:21:48.465Z,84.40
2023-04-11T16:26:50.136Z,83.50
2023-04-11T16:31:52.905Z,82.00
2023-04-11T16:36:54.563Z,84.50
2023-04-11T16:41:56.404Z,85.30
2023-04-11T16:46:58.081Z,85.30
2023-04-11T16:51:59.765Z,84.80
2023-04-11T16:57:01.782Z,85.10
2023-04-11T17:02:03.501Z,85.90
2023-04-11T17:07:05.172Z,87.20
2023-04-11T17:12:06.797Z,89.20
2023-04-11T17:17:08.541Z,88.90
2023-04-11T17:22:10.798Z,90.10
2023-04-11T17:27:12.482Z,90.60
2023-04-11T17:32:14.090Z,91.00
2023-04-11T17:37:16.776Z,91.80
2023-04-11T17:42:18.481Z,92.60
2023-04-11T17:47:21.147Z,93.10
2023-04-11T17:52:23.465Z,94.40
2023-04-11T17:57:25.567Z,96.30
2023-04-11T18:02:27.745Z,98.10
2023-04-11T18:07:29.505Z,99.90
2023-04-11T18:12:31.193Z,99.90
2023-04-11T18:17:33.660Z,99.90
2023-04-11T18:22:35.732Z,99.90
2023-04-11T18:27:38.097Z,99.90
2023-04-11T18:32:43.884Z,99.90
2023-04-11T18:37:47.395Z,99.90
2023-04-11T18:42:52.167Z,99.90
2023-04-11T18:47:55.159Z,99.90
2023-04-11T18:53:01.773Z,99.90
2023-04-11T18:58:08.803Z,99.90
2023-04-11T19:03:16.244Z,99.90
2023-04-11T19:08:22.490Z,99.90
2023-04-11T19:13:24.290Z,99.90
2023-04-11T19:18:26.122Z,99.90
2023-04-11T19:23:27.825Z,99.90
2023-04-11T19:28:29.506Z,99.90
2023-04-11T19:33:31.212Z,99.90
2023-04-11T19:38:33.226Z,99.90
2023-04-11T19:43:34.839Z,99.90
2023-04-11T19:48:36.531Z,99.90
2023-04-11T19:53:38.330Z,99.90
2023-04-11T19:58:40.176Z,99.90
2023-04-11T20:03:41.958Z,99.90
2023-04-11T20:08:43.662Z,99.90
2023-04-11T20:13:45.334Z,99.90
2023-04-11T20:18:47.031Z,99.90
2023-04-11T20:23:48.609Z,99.90
2023-04-11T20:28:50.344Z,99.90
2023-04-11T20:33:52.025Z,99.90
2023-04-11T20:38:55.396Z,99.90
2023-04-11T20:43:57.721Z,99.90
2023-04-11T20:48:59.652Z,99.90
2023-04-11T20:54:01.453Z,99.90
2023-04-11T21:05:08.715Z,99.90
2023-04-11T21:10:11.921Z,99.90
2023-04-11T21:15:13.639Z,99.90
2023-04-11T21:20:18.643Z,99.90
2023-04-11T21:25:21.159Z,99.90
2023-04-11T21:30:23.136Z,99.90
2023-04-11T21:35:24.934Z,99.90
2023-04-11T21:40:26.468Z,99.90
2023-04-11T21:45:28.613Z,99.90
2023-04-11T21:50:30.336Z,99.90
2023-04-11T21:55:32.047Z,99.90
2023-04-11T22:00:33.618Z,99.90
2023-04-11T22:05:35.222Z,99.90
2023-04-11T22:10:44.965Z,99.90
2023-04-11T22:15:58.189Z,99.90
2023-04-11T22:21:03.073Z,99.90
2023-04-11T22:26:05.627Z,99.90
2023-04-11T22:31:07.492Z,99.90
2023-04-11T22:36:10.050Z,99.90
2023-04-11T22:41:16.228Z,99.90
2023-04-11T22:46:17.874Z,99.90
2023-04-11T22:51:21.784Z,99.90
2023-04-11T22:56:23.420Z,99.90
2023-04-11T23:01:25.027Z,99.90
2023-04-11T23:06:27.265Z,99.90
2023-04-11T23:11:28.870Z,99.90
2023-04-11T23:16:30.554Z,99.90
2023-04-11T23:21:33.144Z,99.90
2023-04-11T23:26:34.856Z,99.90
2023-04-11T23:31:36.453Z,99.90
2023-04-11T23:36:38.689Z,99.90
2023-04-11T23:41:40.583Z,99.90
2023-04-11T23:46:42.323Z,99.90
2023-04-11T23:51:43.954Z,99.90
2023-04-11T23:56:45.558Z,99.90
